• Join FlightAware (Why Join?)
  • Login
  • US Flag GB Flag 
14:33 EST


 

Airport Tracker/Info


-or-


 

Live Flight TrackerFlight Track Log ✈ N102WY ✈ 13-Sep-2013 ✈ KCPR - KCYS

Flight Track Log - Related Links

Times and Time Zones

All times are in EDT time to prevent confusion due to time zone crossing. See the N102WY flight status page for this flight to view local times or setup timezone preferences in your user account.

Time Position Orientation Groundspeed Altitude Reporting Facility
EDT Latitude Longitude Course Direction KTS MPH feet Rate Location/Type
14:43 42.9106 -106.3936 143° Southeast 192 221 9,600  Level Denver Center
14:44 42.8678 -106.3247 130° Southeast 228 262 13,100 2,855 Climbing Denver Center
14:45 42.8064 -106.2703 147° Southeast 268 308 15,500 2,565 Climbing Denver Center
14:46 42.7344 -106.2058 147° Southeast 275 316 18,400 2,585 Climbing Denver Center
14:47 42.6728 -106.1503 146° Southeast 277 319 20,800 2,419 Climbing Denver Center
14:48 42.5811 -106.1471 143° Southeast  Level Estimated
14:48 42.6017 -106.0847 146° Southeast 278 320 23,400  Level Denver Center
14:49 42.5339 -106.0250 147° Southeast 297 342 24,800 774 Climbing Denver Center
14:50 42.4514 -105.9503 146° Southeast 316 364 25,000 97 Climbing Denver Center
14:51 42.3794 -105.8861 147° Southeast 323 372 25,000  Level Denver Center
14:52 42.2958 -105.8111 146° Southeast 324 373 25,000  Level Denver Center
14:53 42.2219 -105.7450 146° Southeast 333 383 25,000 -97 Level Denver Center
14:54 42.1242 -105.6742 152° Southeast 354 407 24,800 -532 Descending Denver Center
14:55 42.0531 -105.6194 150° Southeast 318 366 23,900 -1,016 Descending Denver Center
14:56 41.9811 -105.5653 151° Southeast 277 319 22,700 -1,065 Descending Denver Center
14:57 41.9194 -105.5214 152° Southeast 266 306 21,700 -1,258 Descending Denver Center
14:58 41.8497 -105.4694 151° Southeast 259 298 20,100 -1,452 Descending Denver Center
14:59 41.7853 -105.4228 152° Southeast 268 308 18,700 -1,355 Descending Denver Center
15:00 41.7092 -105.3675 152° Southeast 277 319 17,300 -1,344 Descending Denver Center
15:02 41.6456 -105.3222 152° Southeast 275 316 15,900 -1,488 Descending Denver Center
15:03 41.5744 -105.2686 151° Southeast 266 306 14,200 -1,403 Descending Denver Center
15:04 41.5139 -105.2256 152° Southeast 261 300 13,000 -629 Descending Denver Center
15:05 41.4497 -105.1781 151° Southeast 242 278 12,900 -1,016 Descending Denver Center
15:06 41.3964 -105.1389 151° Southeast 231 266 10,900 -1,887 Descending Denver Center
15:07 41.3403 -105.0631 135° Southeast 250 288 9,000 -1,839 Descending Denver Center
15:09 41.2358 -104.9251 135° Southeast  Level FlightAware Approximate
15:16 41.1556 -104.8105 132° Southeast  Level Estimated
15:17 41.1556 -104.8105 132° Southeast  Level Estimated
15:18 41.1556 -104.8105 132° Southeast  Level Estimated
15:19 41.1556 -104.8105 132° Southeast  Level Estimated
15:20 41.1556 -104.8105 132° Southeast  Level Estimated